Home   Weather   USA   Denver   Past weeks
Flag for USA

Past Weather in Denver, Colorado, USA — January 2023

Currently: 78 °F. Broken clouds. (Weather station: Buckley Air Force Base, USA). See more current weather

January 2023 Weather in Denver — Graph

°F

High & Low Weather Summary for January 2023

 TemperatureHumidityPressure
High57 °F (Jan 14, 12:58 pm)100% (Jan 1, 6:19 pm)30.45 "Hg (Jan 1, 6:19 pm)
Low-9 °F (Jan 30, 6:58 am)25% (Jan 26, 1:58 pm)29.35 "Hg (Jan 15, 1:58 pm)
Average25 °F70%30.01 "Hg
* Reported Jan 1 12:58 am — Jan 31 11:58 pm, Denver. Weather by CustomWeather, © 2024

Note: Actual official high and low records may vary slightly from our data, if they occured in-between our weather recording intervals... More about our weather records

Denver Weather History for January 1, 2023

Scroll right to see more
 ConditionsComfort  
Time TempWeatherWind HumidityBarometerVisibility
12:58 am
Sun, Jan 1
28 °FPartly cloudy.10 mph72%29.72 "Hg10 mi
1:58 am29 °FPartly cloudy.7 mph72%29.74 "Hg10 mi
2:58 am29 °FPartly cloudy.5 mph70%29.75 "Hg10 mi
3:58 am28 °FPassing clouds.5 mph73%29.78 "Hg10 mi
4:58 am28 °FPartly cloudy.3 mph73%29.81 "Hg10 mi
5:58 am26 °FPassing clouds.9 mph71%29.82 "Hg10 mi
6:58 am27 °FPassing clouds.5 mph71%29.86 "Hg10 mi
7:58 am26 °FPartly sunny.6 mph73%29.86 "Hg10 mi
8:58 am26 °FPartly sunny.6 mph73%29.85 "Hg10 mi
9:58 am29 °FPartly sunny.5 mph71%29.84 "Hg10 mi
10:58 am29 °FPartly sunny.5 mph75%29.86 "Hg10 mi
11:58 am33 °FPartly sunny.9 mph72%29.80 "Hg10 mi
12:58 pm33 °FPartly sunny.12 mph71%29.78 "Hg10 mi
1:58 pm32 °FPartly sunny.12 mph75%29.80 "Hg10 mi
2:58 pm32 °FPartly sunny.5 mph78%29.80 "Hg10 mi
3:58 pm30 °FBroken clouds.6 mph82%29.84 "Hg10 mi
5:58 pm27 °FIce fog.5 mph94%29.90 "Hg0 mi
6:19 pm27 °FIce fog.No wind100%29.90 "Hg1 mi
6:36 pm27 °FIce fog.No wind93%29.88 "Hg1 mi
6:58 pm27 °FIce fog.No wind94%29.91 "Hg1 mi
7:03 pm27 °FLight freezing rain. Ice fog.No wind93%29.90 "Hg1 mi
7:58 pm27 °FLight freezing rain. Ice fog.3 mph94%29.90 "Hg1 mi
8:38 pm27 °FIce fog.No wind100%29.90 "Hg1 mi
8:58 pm27 °FIce fog.No wind94%29.89 "Hg0 mi
9:14 pm27 °FHeavy snow. Ice fog.3 mph100%29.88 "Hg0 mi
9:33 pm28 °FLight snow. Ice fog.5 mph93%29.86 "Hg1 mi
9:58 pm28 °FLight snow. Ice fog.6 mph94%29.86 "Hg1 mi
10:33 pm27 °FLight snow. Ice fog.5 mph100%29.86 "Hg1 mi
10:58 pm27 °FLight snow. Ice fog.5 mph94%29.86 "Hg1 mi
11:58 pm26 °FLight snow. Ice fog.No wind94%29.84 "Hg1 mi
Weather by CustomWeather, © 2024

See weather overview